createdAt,value
2022-09-05T00:01:53.483Z,8.63
2022-09-05T00:04:25.067Z,6.82
2022-09-05T00:07:03.160Z,8.40
2022-09-05T00:09:44.823Z,6.32
2022-09-05T00:12:11.945Z,6.45
2022-09-05T00:15:17.033Z,5.97
2022-09-05T00:19:12.058Z,5.70
2022-09-05T00:24:26.772Z,3.70
2022-09-05T00:24:27.421Z,3.38
2022-09-05T00:26:08.421Z,5.47
2022-09-05T00:28:43.098Z,10.10
2022-09-05T00:31:55.844Z,7.88
2022-09-05T00:33:58.574Z,4.07
2022-09-05T00:36:43.868Z,5.18
2022-09-05T00:39:17.876Z,7.30
2022-09-05T00:41:46.865Z,7.80
2022-09-05T00:44:14.225Z,10.57
2022-09-05T00:46:49.671Z,7.43
2022-09-05T00:49:31.534Z,5.22
2022-09-05T00:52:12.702Z,10.63
2022-09-05T00:54:57.811Z,6.88
2022-09-05T00:57:50.291Z,10.73
2022-09-05T01:00:17.796Z,6.13
2022-09-05T01:03:00.447Z,6.68
2022-09-05T01:05:42.111Z,3.78
2022-09-05T01:08:11.514Z,8.40
2022-09-05T01:10:42.334Z,4.38
2022-09-05T01:13:19.982Z,4.45
2022-09-05T01:15:52.282Z,5.43
2022-09-05T01:18:18.603Z,4.10
2022-09-05T01:20:47.940Z,6.13
2022-09-05T01:23:15.482Z,6.20
2022-09-05T01:25:55.269Z,7.45
2022-09-05T01:29:15.981Z,6.50
2022-09-05T01:31:29.954Z,5.80
2022-09-05T01:33:59.357Z,5.07
2022-09-05T01:36:28.723Z,6.45
2022-09-05T01:40:11.539Z,12.02
2022-09-05T01:42:08.948Z,5.65
2022-09-05T01:45:04.729Z,5.88
2022-09-05T01:47:46.111Z,7.70
2022-09-05T01:50:31.432Z,7.00
2022-09-05T01:53:07.090Z,6.35
2022-09-05T01:56:04.882Z,10.30
2022-09-05T01:58:46.103Z,4.25
2022-09-05T02:01:25.141Z,6.82
2022-09-05T02:03:59.287Z,8.43
2022-09-05T02:06:48.950Z,8.07
2022-09-05T02:09:30.603Z,7.75
2022-09-05T02:12:00.851Z,3.95
2022-09-05T02:14:33.972Z,5.75
2022-09-05T02:17:49.796Z,5.22
2022-09-05T02:20:28.933Z,9.18
2022-09-05T02:23:04.540Z,4.15
2022-09-05T02:26:11.096Z,6.30
2022-09-05T02:28:44.933Z,12.18
2022-09-05T02:31:22.369Z,6.93
2022-09-05T02:34:02.638Z,4.10
2022-09-05T02:37:03.591Z,7.28
2022-09-05T02:45:01.378Z,8.23
2022-09-05T02:45:08.517Z,2.33
2022-09-05T02:45:38.667Z,3.67
2022-09-05T02:48:14.838Z,13.50
2022-09-05T02:57:23.894Z,9.10
2022-09-05T02:57:32.669Z,4.15
2022-09-05T02:57:38.986Z,8.90
2022-09-05T02:59:14.571Z,6.80
2022-09-05T03:01:44.975Z,9.43
2022-09-05T03:04:11.352Z,8.40
2022-09-05T03:06:40.811Z,8.18
2022-09-05T03:09:23.123Z,7.93
2022-09-05T03:12:28.252Z,8.05
2022-09-05T03:15:01.057Z,13.65
2022-09-05T03:17:36.677Z,12.10
2022-09-05T03:20:32.580Z,12.13
2022-09-05T03:23:02.032Z,9.63
2022-09-05T03:25:43.702Z,7.43
2022-09-05T03:28:33.127Z,8.80
2022-09-05T03:31:22.031Z,13.15
2022-09-05T03:34:08.431Z,7.03
2022-09-05T03:36:40.713Z,12.77
2022-09-05T03:39:22.712Z,12.27
2022-09-05T03:41:49.768Z,12.50
2022-09-05T03:44:19.227Z,7.15
2022-09-05T03:47:05.878Z,6.80
2022-09-05T03:51:45.849Z,4.97
2022-09-05T03:57:13.049Z,4.15
2022-09-05T03:57:13.383Z,7.18
2022-09-05T03:58:41.965Z,4.50
2022-09-05T04:02:08.841Z,8.77
2022-09-05T04:08:14.988Z,5.45
2022-09-05T04:08:24.664Z,2.17
2022-09-05T04:09:52.436Z,3.20
2022-09-05T04:12:22.927Z,7.70
2022-09-05T04:14:55.136Z,7.22
2022-09-05T04:18:03.844Z,9.38
2022-09-05T04:20:40.660Z,12.65
2022-09-05T04:23:25.110Z,14.55
2022-09-05T04:26:11.702Z,17.55
2022-09-05T04:29:02.607Z,15.32
2022-09-05T04:31:34.728Z,15.10
2022-09-05T04:34:33.835Z,19.42
2022-09-05T04:37:01.778Z,17.80
2022-09-05T04:39:28.912Z,20.58
2022-09-05T04:42:04.596Z,17.98
2022-09-05T04:44:34.660Z,19.55
2022-09-05T04:47:05.501Z,21.98
2022-09-05T04:49:33.881Z,22.38
2022-09-05T04:52:30.947Z,27.65
2022-09-05T04:54:57.671Z,34.53
2022-09-05T04:57:33.461Z,20.55
2022-09-05T05:04:57.470Z,19.40
2022-09-05T05:06:11.033Z,22.67
2022-09-05T05:06:15.489Z,24.27
2022-09-05T05:08:51.351Z,29.60
2022-09-05T05:17:58.249Z,31.70
2022-09-05T05:18:00.977Z,26.75
2022-09-05T05:18:08.800Z,26.95
2022-09-05T05:20:40.658Z,28.80
2022-09-05T05:22:45.697Z,40.83
2022-09-05T05:25:13.089Z,25.45
2022-09-05T05:27:45.444Z,31.15
2022-09-05T05:30:12.423Z,17.20
2022-09-05T05:32:46.070Z,25.60
2022-09-05T05:35:20.264Z,17.60
2022-09-05T05:38:05.340Z,20.40
2022-09-05T05:40:50.664Z,28.40
2022-09-05T05:43:20.116Z,13.80
2022-09-05T05:45:46.701Z,16.90
2022-09-05T05:48:19.142Z,13.93
2022-09-05T05:51:03.295Z,20.63
2022-09-05T05:53:42.873Z,26.55
2022-09-05T05:56:31.618Z,17.65
2022-09-05T05:59:03.294Z,20.88
2022-09-05T06:01:45.234Z,17.95
2022-09-05T06:04:30.509Z,13.35
2022-09-05T06:07:06.485Z,13.55
2022-09-05T06:14:49.418Z,12.85
2022-09-05T06:15:01.051Z,14.05
2022-09-05T06:15:57.499Z,13.02
2022-09-05T06:18:48.072Z,13.95
2022-09-05T06:21:45.800Z,10.10
2022-09-05T06:24:53.726Z,11.18
2022-09-05T06:28:01.614Z,8.45
2022-09-05T06:30:36.426Z,9.63
2022-09-05T06:33:18.911Z,15.00
2022-09-05T06:35:50.772Z,12.43
2022-09-05T06:38:44.029Z,12.23
2022-09-05T06:41:49.058Z,10.90
2022-09-05T06:44:35.607Z,14.60
2022-09-05T06:47:22.896Z,14.95
2022-09-05T06:49:59.150Z,18.50
2022-09-05T06:52:54.034Z,23.13
2022-09-05T06:55:29.266Z,18.75
2022-09-05T06:58:09.100Z,20.75
2022-09-05T07:00:55.914Z,25.58
2022-09-05T07:03:37.912Z,26.83
2022-09-05T07:06:07.627Z,22.92
2022-09-05T07:08:51.898Z,20.60
2022-09-05T07:11:19.166Z,19.63
2022-09-05T07:13:45.657Z,22.98
2022-09-05T07:16:16.870Z,24.20
2022-09-05T07:19:25.438Z,27.90
2022-09-05T07:21:51.798Z,22.92
2022-09-05T07:24:50.271Z,22.60
2022-09-05T07:27:10.756Z,22.67
2022-09-05T07:29:52.401Z,23.73
2022-09-05T07:32:28.770Z,23.00
2022-09-05T07:34:56.572Z,24.95
2022-09-05T07:37:26.859Z,21.13
2022-09-05T07:39:53.220Z,21.67
2022-09-05T07:42:39.825Z,23.63
2022-09-05T07:45:10.801Z,18.40
2022-09-05T07:47:52.969Z,19.35
2022-09-05T07:54:07.370Z,18.20
2022-09-05T07:57:03.720Z,19.33
2022-09-05T07:57:09.518Z,16.55
2022-09-05T07:58:49.683Z,16.77
2022-09-05T08:01:17.808Z,17.92
2022-09-05T08:03:53.955Z,14.80
2022-09-05T08:06:30.333Z,19.73
2022-09-05T08:10:08.954Z,20.55
2022-09-05T08:12:27.887Z,24.38
2022-09-05T08:15:46.698Z,16.75
2022-09-05T08:18:40.935Z,16.35
2022-09-05T08:21:27.435Z,14.55
2022-09-05T08:24:05.609Z,13.65
2022-09-05T08:26:49.276Z,11.38
2022-09-05T08:29:18.695Z,11.80
2022-09-05T08:31:52.554Z,11.30
2022-09-05T08:34:31.397Z,16.48
2022-09-05T08:37:06.998Z,8.82
2022-09-05T08:39:34.923Z,8.43
2022-09-05T08:42:24.826Z,6.72
2022-09-05T08:46:41.095Z,6.45
2022-09-05T08:48:01.764Z,5.97
2022-09-05T08:50:28.519Z,5.35
2022-09-05T08:53:18.632Z,8.90
2022-09-05T08:55:59.293Z,4.38
2022-09-05T08:58:25.761Z,5.88
2022-09-05T09:01:12.454Z,6.40
2022-09-05T09:03:51.955Z,7.53
2022-09-05T09:06:20.815Z,3.47
2022-09-05T09:08:54.462Z,4.13
2022-09-05T09:11:34.265Z,2.47
2022-09-05T09:14:30.296Z,4.57
2022-09-05T09:16:57.611Z,3.20
2022-09-05T09:19:29.053Z,3.45
2022-09-05T09:22:10.476Z,2.53
2022-09-05T09:25:15.102Z,5.50
2022-09-05T09:28:48.343Z,4.40
2022-09-05T09:30:36.123Z,3.00
2022-09-05T09:33:03.750Z,3.15
2022-09-05T09:35:33.266Z,3.58
2022-09-05T09:38:19.592Z,3.45
2022-09-05T09:41:00.414Z,2.72
2022-09-05T09:43:34.221Z,1.90
2022-09-05T09:46:10.155Z,4.97
2022-09-05T09:48:55.462Z,1.92
2022-09-05T09:51:40.483Z,2.70
2022-09-05T09:54:21.541Z,2.28
2022-09-05T09:56:55.024Z,3.08
2022-09-05T09:59:27.333Z,3.35
2022-09-05T10:03:50.027Z,2.03
2022-09-05T10:10:37.915Z,1.98
2022-09-05T10:10:46.168Z,1.75
2022-09-05T10:13:58.531Z,5.53
2022-09-05T10:16:24.916Z,4.05
2022-09-05T10:18:59.491Z,3.05
2022-09-05T10:21:48.019Z,2.63
2022-09-05T10:24:23.345Z,8.32
2022-09-05T10:27:08.505Z,3.03
2022-09-05T10:29:41.039Z,2.15
2022-09-05T10:35:04.486Z,3.70
2022-09-05T10:35:20.954Z,3.67
2022-09-05T10:37:54.901Z,2.20
2022-09-05T10:40:23.329Z,3.80
2022-09-05T10:43:00.903Z,7.10
2022-09-05T10:45:30.210Z,3.33
2022-09-05T10:48:13.124Z,3.53
2022-09-05T10:50:42.959Z,5.22
2022-09-05T10:53:15.475Z,3.55
2022-09-05T10:55:55.375Z,3.03
2022-09-05T11:02:16.159Z,3.15
2022-09-05T11:02:20.977Z,3.22
2022-09-05T11:04:46.439Z,5.20
2022-09-05T11:07:29.315Z,4.95
2022-09-05T11:10:11.071Z,6.22
2022-09-05T11:12:37.443Z,2.33
2022-09-05T11:15:14.416Z,2.80
2022-09-05T11:17:48.635Z,5.22
2022-09-05T11:20:35.349Z,5.40
2022-09-05T11:23:17.960Z,3.95
2022-09-05T11:25:46.258Z,3.25
2022-09-05T11:28:15.160Z,4.00
2022-09-05T11:30:43.626Z,6.43
2022-09-05T11:39:05.308Z,5.55
2022-09-05T11:39:51.197Z,6.30
2022-09-05T11:39:54.718Z,2.83
2022-09-05T11:41:42.138Z,11.35
2022-09-05T11:44:25.845Z,4.95
2022-09-05T11:47:30.029Z,6.07
2022-09-05T11:50:16.992Z,4.90
2022-09-05T11:53:04.676Z,5.57
2022-09-05T11:55:31.077Z,2.33
2022-09-05T12:01:41.199Z,2.28
2022-09-05T12:04:16.971Z,3.05
2022-09-05T12:06:49.811Z,2.00
2022-09-05T12:09:28.883Z,2.70
2022-09-05T12:12:39.050Z,1.88
2022-09-05T12:15:07.875Z,5.75
2022-09-05T12:17:43.143Z,1.23
2022-09-05T12:20:21.945Z,3.63
2022-09-05T12:23:01.635Z,4.63
2022-09-05T12:27:41.872Z,1.55
2022-09-05T12:29:25.927Z,3.00
2022-09-05T12:32:36.493Z,3.50
2022-09-05T12:36:03.851Z,1.08
2022-09-05T12:40:04.988Z,1.65
2022-09-05T12:40:46.276Z,2.35
2022-09-05T12:40:55.264Z,2.35
2022-09-05T12:42:38.715Z,3.55
2022-09-05T12:45:16.020Z,3.50
2022-09-05T12:47:56.630Z,2.80
2022-09-05T12:50:39.765Z,2.72
2022-09-05T12:53:09.380Z,2.92
2022-09-05T12:55:42.660Z,7.05
2022-09-05T13:02:56.752Z,3.13
2022-09-05T13:03:08.574Z,1.67
2022-09-05T13:04:18.057Z,2.72
2022-09-05T13:06:47.394Z,2.00
2022-09-05T13:09:16.440Z,1.67
2022-09-05T13:14:48.560Z,2.78
2022-09-05T13:15:06.113Z,1.80
2022-09-05T13:18:16.924Z,5.07
2022-09-05T13:20:54.013Z,5.57
2022-09-05T13:23:50.774Z,4.75
2022-09-05T13:26:19.523Z,3.60
2022-09-05T13:29:10.082Z,7.47
2022-09-05T13:37:55.710Z,2.92
2022-09-05T13:38:06.158Z,4.18
2022-09-05T13:38:17.617Z,1.98
2022-09-05T13:40:26.938Z,1.92
2022-09-05T13:43:09.307Z,2.50
2022-09-05T13:45:45.001Z,7.45
2022-09-05T13:48:27.516Z,3.83
2022-09-05T13:50:57.680Z,2.30
2022-09-05T13:53:26.168Z,4.32
2022-09-05T13:55:54.841Z,3.20
2022-09-05T13:58:42.707Z,3.63
2022-09-05T14:01:14.520Z,7.78
2022-09-05T14:04:00.522Z,3.60
2022-09-05T14:06:45.404Z,2.95
2022-09-05T14:09:36.621Z,3.92
2022-09-05T14:12:15.181Z,7.18
2022-09-05T14:15:08.970Z,3.90
2022-09-05T14:17:56.658Z,4.70
2022-09-05T14:20:44.315Z,4.70
2022-09-05T14:23:17.650Z,3.13
2022-09-05T14:25:47.197Z,3.25
2022-09-05T14:28:52.149Z,5.10
2022-09-05T14:35:18.432Z,2.90
2022-09-05T14:37:50.673Z,1.98
2022-09-05T14:37:52.316Z,2.05
2022-09-05T14:40:30.486Z,4.80
2022-09-05T14:43:26.992Z,4.50
2022-09-05T14:46:13.480Z,3.08
2022-09-05T14:48:53.341Z,3.90
2022-09-05T14:51:30.039Z,3.55
2022-09-05T14:54:02.666Z,4.63
2022-09-05T15:01:53.393Z,3.77
2022-09-05T15:02:44.771Z,1.75
2022-09-05T15:02:49.217Z,3.55
2022-09-05T15:05:17.299Z,6.07
2022-09-05T15:07:44.541Z,4.95
2022-09-05T15:12:14.553Z,2.90
2022-09-05T15:13:12.777Z,4.93
2022-09-05T15:15:39.289Z,3.13
2022-09-05T15:18:20.188Z,4.30
2022-09-05T15:20:48.278Z,6.78
2022-09-05T15:23:26.283Z,3.72
2022-09-05T15:25:58.890Z,3.40
2022-09-05T15:28:33.737Z,3.47
2022-09-05T15:31:07.019Z,3.88
2022-09-05T15:33:34.719Z,4.90
2022-09-05T15:36:01.802Z,2.30
2022-09-05T15:38:30.615Z,2.35
2022-09-05T15:41:20.384Z,4.82
2022-09-05T15:43:51.794Z,3.05
2022-09-05T15:46:23.863Z,3.13
2022-09-05T15:48:55.851Z,3.47
2022-09-05T15:51:40.105Z,4.18
2022-09-05T15:54:10.737Z,4.88
2022-09-05T15:56:46.922Z,3.63
2022-09-05T15:59:13.435Z,3.42
2022-09-05T16:01:59.078Z,2.05
2022-09-05T16:07:08.431Z,3.50
2022-09-05T16:10:40.127Z,3.03
2022-09-05T16:10:49.601Z,5.22
2022-09-05T16:13:06.412Z,1.60
2022-09-05T16:19:29.406Z,4.78
2022-09-05T16:23:12.767Z,2.60
2022-09-05T16:23:25.764Z,4.50
2022-09-05T16:24:24.903Z,3.55
2022-09-05T16:27:11.601Z,3.08
2022-09-05T16:29:43.456Z,3.25
2022-09-05T16:32:24.068Z,3.35
2022-09-05T16:34:59.538Z,5.47
2022-09-05T16:37:46.199Z,1.75
2022-09-05T16:40:19.648Z,2.88
2022-09-05T16:42:54.257Z,7.00
2022-09-05T16:45:28.907Z,2.40
2022-09-05T16:48:06.946Z,2.78
2022-09-05T16:50:39.513Z,4.22
2022-09-05T16:53:30.674Z,2.42
2022-09-05T16:56:25.137Z,3.17
2022-09-05T16:58:53.638Z,2.75
2022-09-05T17:01:37.739Z,3.20
2022-09-05T17:04:15.875Z,4.57
2022-09-05T17:06:51.382Z,5.57
2022-09-05T17:09:20.349Z,6.88
2022-09-05T17:12:00.680Z,5.50
2022-09-05T17:14:35.659Z,6.15
2022-09-05T17:17:36.528Z,2.13
2022-09-05T17:20:05.752Z,5.30
2022-09-05T17:28:43.091Z,2.63
2022-09-05T17:29:23.730Z,2.85
2022-09-05T17:29:49.901Z,3.28
2022-09-05T17:34:18.478Z,3.00
2022-09-05T17:37:07.795Z,3.60
2022-09-05T17:40:00.285Z,2.40
2022-09-05T17:42:32.371Z,3.13
2022-09-05T17:45:17.860Z,4.43
2022-09-05T17:47:52.000Z,2.60
2022-09-05T17:50:28.060Z,5.78
2022-09-05T17:52:59.727Z,2.50
2022-09-05T17:55:34.918Z,4.25
2022-09-05T17:58:20.192Z,3.10
2022-09-05T18:00:48.818Z,6.20
2022-09-05T18:03:51.277Z,4.15
2022-09-05T18:06:18.523Z,3.60
2022-09-05T18:08:51.625Z,3.17
2022-09-05T18:11:25.709Z,3.58
2022-09-05T18:14:06.783Z,2.95
2022-09-05T18:17:35.262Z,6.53
2022-09-05T18:19:33.991Z,6.22
2022-09-05T18:22:11.301Z,3.15
2022-09-05T18:24:46.810Z,4.22
2022-09-05T18:27:37.826Z,3.25
2022-09-05T18:30:19.086Z,3.25
2022-09-05T18:32:54.192Z,3.75
2022-09-05T18:35:52.746Z,4.70
2022-09-05T18:38:29.707Z,5.40
2022-09-05T18:41:14.689Z,5.35
2022-09-05T18:44:01.666Z,4.57
2022-09-05T18:46:45.518Z,3.15
2022-09-05T18:50:23.259Z,4.95
2022-09-05T18:52:23.695Z,5.85
2022-09-05T18:56:09.570Z,5.55
2022-09-05T18:57:44.080Z,5.25
2022-09-05T19:00:14.668Z,5.18
2022-09-05T19:02:58.479Z,4.25
2022-09-05T19:05:43.556Z,8.75
2022-09-05T19:08:28.824Z,6.15
2022-09-05T19:10:59.691Z,11.15
2022-09-05T19:13:31.933Z,5.00
2022-09-05T19:16:07.995Z,5.88
2022-09-05T19:19:03.581Z,4.13
2022-09-05T19:21:33.173Z,2.92
2022-09-05T19:24:02.864Z,6.47
2022-09-05T19:26:31.007Z,5.80
2022-09-05T19:36:56.962Z,3.55
2022-09-05T19:37:03.612Z,6.78
2022-09-05T19:37:06.989Z,6.75
2022-09-05T19:37:36.627Z,6.97
2022-09-05T19:47:13.629Z,3.70
2022-09-05T19:47:28.900Z,6.53
2022-09-05T19:47:45.334Z,4.85
2022-09-05T19:48:34.635Z,3.08
2022-09-05T19:51:16.194Z,4.95
2022-09-05T19:54:04.686Z,5.07
2022-09-05T19:56:40.535Z,6.78
2022-09-05T19:59:15.738Z,7.25
2022-09-05T20:01:43.237Z,6.65
2022-09-05T20:04:16.460Z,6.80
2022-09-05T20:06:42.927Z,5.55
2022-09-05T20:09:20.322Z,5.35
2022-09-05T20:11:49.721Z,5.00
2022-09-05T20:14:18.101Z,6.22
2022-09-05T20:16:44.532Z,4.13
2022-09-05T20:19:29.222Z,6.50
2022-09-05T20:21:58.148Z,5.10
2022-09-05T20:24:27.859Z,10.30
2022-09-05T20:26:54.365Z,5.22
2022-09-05T20:29:54.250Z,5.20
2022-09-05T20:32:16.741Z,7.45
2022-09-05T20:37:40.174Z,6.57
2022-09-05T20:43:09.198Z,6.53
2022-09-05T20:43:20.999Z,7.57
2022-09-05T20:43:35.483Z,6.25
2022-09-05T20:47:36.562Z,7.93
2022-09-05T20:54:08.016Z,5.72
2022-09-05T20:54:18.398Z,6.25
2022-09-05T20:54:34.935Z,7.03
2022-09-05T20:57:18.218Z,12.38
2022-09-05T20:59:44.909Z,7.18
2022-09-05T21:02:27.877Z,5.78
2022-09-05T21:05:11.436Z,9.63
2022-09-05T21:07:54.504Z,6.57
2022-09-05T21:10:34.140Z,8.02
2022-09-05T21:13:19.719Z,7.43
2022-09-05T21:15:53.747Z,6.38
2022-09-05T21:18:22.428Z,5.75
2022-09-05T21:20:56.298Z,7.35
2022-09-05T21:23:34.476Z,8.27
2022-09-05T21:26:04.750Z,4.72
2022-09-05T21:28:36.467Z,12.45
2022-09-05T21:31:06.373Z,9.00
2022-09-05T21:33:45.364Z,8.10
2022-09-05T21:36:16.987Z,6.50
2022-09-05T21:38:43.463Z,5.00
2022-09-05T21:41:10.731Z,7.90
2022-09-05T21:47:37.540Z,6.80
2022-09-05T21:47:39.312Z,8.13
2022-09-05T21:49:15.911Z,7.10
2022-09-05T21:51:48.038Z,8.82
2022-09-05T21:56:38.634Z,6.85
2022-09-05T21:59:22.459Z,4.95
2022-09-05T21:59:59.531Z,9.25
2022-09-05T22:02:34.444Z,8.55
2022-09-05T22:05:03.543Z,7.00
2022-09-05T22:07:35.752Z,7.20
2022-09-05T22:10:04.108Z,11.55
2022-09-05T22:12:35.892Z,12.45
2022-09-05T22:15:26.614Z,8.77
2022-09-05T22:17:54.260Z,7.38
2022-09-05T22:20:25.636Z,6.55
2022-09-05T22:22:56.240Z,6.53
2022-09-05T22:25:28.398Z,7.68
2022-09-05T22:27:57.369Z,6.97
2022-09-05T22:30:24.093Z,10.35
2022-09-05T22:32:50.463Z,5.70
2022-09-05T22:35:28.605Z,8.40
2022-09-05T22:38:00.058Z,8.85
2022-09-05T22:40:27.590Z,7.03
2022-09-05T22:42:58.056Z,6.13
2022-09-05T22:45:24.797Z,9.38
2022-09-05T22:47:51.229Z,10.07
2022-09-05T22:50:17.766Z,8.57
2022-09-05T22:52:46.283Z,8.38
2022-09-05T22:55:15.059Z,6.75
2022-09-05T22:57:41.946Z,14.07
2022-09-05T23:00:08.628Z,5.78
2022-09-05T23:02:35.208Z,7.32
2022-09-05T23:05:02.139Z,10.90
2022-09-05T23:07:29.134Z,6.30
2022-09-05T23:09:55.485Z,5.88
2022-09-05T23:12:21.844Z,10.68
2022-09-05T23:14:48.195Z,6.53
2022-09-05T23:17:14.713Z,7.32
2022-09-05T23:19:41.095Z,7.47
2022-09-05T23:22:07.434Z,8.95
2022-09-05T23:24:36.226Z,7.22
2022-09-05T23:27:02.591Z,6.50
2022-09-05T23:29:29.003Z,9.60
2022-09-05T23:31:56.301Z,8.75
2022-09-05T23:34:25.592Z,9.15
2022-09-05T23:36:51.985Z,8.27
2022-09-05T23:39:18.373Z,11.40
2022-09-05T23:41:45.846Z,7.25
2022-09-05T23:44:12.264Z,14.00
2022-09-05T23:46:40.310Z,7.22
2022-09-05T23:49:07.058Z,9.02
2022-09-05T23:51:33.423Z,10.05
2022-09-05T23:53:59.808Z,11.68
2022-09-05T23:56:26.191Z,9.05
2022-09-05T23:58:52.594Z,7.00
